createdAt,value
2018-01-16T00:00:29.573Z,100730.48
2018-01-16T00:02:57.170Z,100727.66
2018-01-16T00:05:24.819Z,100747.58
2018-01-16T00:07:52.378Z,100746.33
2018-01-16T00:10:19.979Z,100735.31
2018-01-16T00:12:47.571Z,100737.77
2018-01-16T00:15:15.120Z,100723.27
2018-01-16T00:17:42.713Z,100712.03
2018-01-16T00:20:10.319Z,100695.53
2018-01-16T00:22:41.922Z,100708.05
2018-01-16T00:25:09.470Z,100719.94
2018-01-16T00:27:37.015Z,100721.37
2018-01-16T00:30:04.627Z,100720.61
2018-01-16T00:32:32.178Z,100703.00
2018-01-16T00:34:59.774Z,100698.80
2018-01-16T00:37:27.342Z,100700.21
2018-01-16T00:39:54.885Z,100697.38
2018-01-16T00:42:22.474Z,100701.66
2018-01-16T00:44:50.018Z,100709.28
2018-01-16T00:47:17.562Z,100714.45
2018-01-16T00:49:45.182Z,100700.31
2018-01-16T00:52:12.787Z,100707.02
2018-01-16T00:54:40.370Z,100709.45
2018-01-16T00:57:07.914Z,100715.33
2018-01-16T00:59:35.458Z,100698.80
2018-01-16T01:02:14.972Z,100693.05
2018-01-16T01:04:42.524Z,100688.27
2018-01-16T01:07:10.180Z,100694.06
2018-01-16T01:09:37.867Z,100687.48
2018-01-16T01:12:05.470Z,100690.02
2018-01-16T01:14:33.022Z,100680.26
2018-01-16T01:17:00.623Z,100679.76
2018-01-16T01:19:28.234Z,100677.63
2018-01-16T01:21:55.834Z,100675.06
2018-01-16T01:24:23.374Z,100674.20
2018-01-16T01:26:50.998Z,100667.53
2018-01-16T01:29:18.587Z,100672.36
2018-01-16T01:31:46.202Z,100670.64
2018-01-16T01:34:13.746Z,100667.72
2018-01-16T01:36:41.347Z,100664.13
2018-01-16T01:39:08.955Z,100656.45
2018-01-16T01:41:36.542Z,100662.02
2018-01-16T01:44:04.125Z,100660.17
2018-01-16T01:46:31.674Z,100663.38
2018-01-16T01:49:16.208Z,100657.68
2018-01-16T01:51:43.751Z,100658.94
2018-01-16T01:54:11.355Z,100645.67
2018-01-16T01:56:38.887Z,100651.27
2018-01-16T01:59:06.430Z,100655.70
2018-01-16T02:01:34.094Z,100650.42
2018-01-16T02:04:01.698Z,100651.88
2018-01-16T02:06:29.244Z,100652.08
2018-01-16T02:08:56.859Z,100647.91
2018-01-16T02:11:24.402Z,100643.62
2018-01-16T02:13:52.060Z,100642.62
2018-01-16T02:16:19.601Z,100651.92
2018-01-16T02:18:47.206Z,100645.73
2018-01-16T02:21:14.820Z,100655.15
2018-01-16T02:23:42.418Z,100651.45
2018-01-16T02:26:10.013Z,100655.34
2018-01-16T02:28:37.615Z,100648.05
2018-01-16T02:31:05.158Z,100642.53
2018-01-16T02:33:32.711Z,100646.21
2018-01-16T02:36:00.258Z,100648.02
2018-01-16T02:38:27.847Z,100642.46
2018-01-16T02:40:55.394Z,100647.92
2018-01-16T02:43:22.995Z,100655.97
2018-01-16T02:45:50.586Z,100633.03
2018-01-16T02:48:18.166Z,100622.84
2018-01-16T02:50:45.785Z,100623.70
2018-01-16T02:53:13.372Z,100632.77
2018-01-16T02:55:40.962Z,100647.36
2018-01-16T02:58:08.513Z,100639.64
2018-01-16T03:00:36.062Z,100638.52
2018-01-16T03:03:03.707Z,100638.55
2018-01-16T03:05:31.253Z,100628.05
2018-01-16T03:07:58.850Z,100607.61
2018-01-16T03:10:26.399Z,100605.12
2018-01-16T03:12:53.944Z,100611.72
2018-01-16T03:15:21.526Z,100603.65
2018-01-16T03:17:49.061Z,100624.61
2018-01-16T03:20:16.653Z,100635.39
2018-01-16T03:22:44.263Z,100641.25
2018-01-16T03:25:12.574Z,100618.20
2018-01-16T03:27:40.186Z,100629.64
2018-01-16T03:30:07.761Z,100620.28
2018-01-16T03:32:35.296Z,100619.20
2018-01-16T03:35:02.845Z,100613.16
2018-01-16T03:37:30.386Z,100600.52
2018-01-16T03:39:57.974Z,100603.19
2018-01-16T03:42:25.576Z,100605.36
2018-01-16T03:44:53.113Z,100600.78
2018-01-16T03:47:20.669Z,100607.10
2018-01-16T03:49:48.266Z,100596.69
2018-01-16T03:52:15.850Z,100586.78
2018-01-16T03:54:43.393Z,100581.67
2018-01-16T03:57:10.965Z,100582.47
2018-01-16T03:59:38.513Z,100573.58
2018-01-16T04:02:06.045Z,100571.63
2018-01-16T04:04:33.690Z,100579.80
2018-01-16T04:07:01.287Z,100582.03
2018-01-16T04:09:28.825Z,100576.39
2018-01-16T04:11:56.374Z,100568.87
2018-01-16T04:14:23.917Z,100571.12
2018-01-16T04:16:51.505Z,100567.92
2018-01-16T04:19:19.072Z,100571.87
2018-01-16T04:21:46.610Z,100580.08
2018-01-16T04:24:14.158Z,100569.27
2018-01-16T04:26:41.702Z,100562.41
2018-01-16T04:29:09.289Z,100550.89
2018-01-16T04:31:36.829Z,100548.33
2018-01-16T04:34:04.464Z,100549.61
2018-01-16T04:36:32.075Z,100554.80
2018-01-16T04:38:59.622Z,100547.87
2018-01-16T04:41:27.202Z,100540.22
2018-01-16T04:43:54.806Z,100538.02
2018-01-16T04:46:22.347Z,100538.05
2018-01-16T04:48:49.959Z,100542.70
2018-01-16T04:51:17.558Z,100553.61
2018-01-16T04:53:45.138Z,100542.09
2018-01-16T04:56:12.677Z,100541.24
2018-01-16T04:58:40.318Z,100553.94
2018-01-16T05:01:07.869Z,100542.59
2018-01-16T05:03:35.471Z,100524.04
2018-01-16T05:06:03.053Z,100530.48
2018-01-16T05:08:30.662Z,100532.56
2018-01-16T05:10:58.260Z,100534.30
2018-01-16T05:13:25.809Z,100522.89
2018-01-16T05:15:53.360Z,100532.73
2018-01-16T05:18:20.938Z,100522.77
2018-01-16T05:20:48.534Z,100529.00
2018-01-16T05:23:16.138Z,100536.39
2018-01-16T05:25:43.746Z,100524.50
2018-01-16T05:28:11.286Z,100524.77
2018-01-16T05:30:38.927Z,100508.86
2018-01-16T05:33:06.526Z,100506.44
2018-01-16T05:35:34.067Z,100510.25
2018-01-16T05:38:01.613Z,100512.30
2018-01-16T05:40:29.211Z,100507.20
2018-01-16T05:42:56.854Z,100507.09
2018-01-16T05:45:24.463Z,100505.73
2018-01-16T05:47:52.002Z,100509.69
2018-01-16T05:50:19.650Z,100494.78
2018-01-16T05:52:47.213Z,100485.80
2018-01-16T05:55:14.793Z,100478.07
2018-01-16T05:57:42.391Z,100481.55
2018-01-16T06:00:09.939Z,100475.89
2018-01-16T06:02:37.482Z,100483.77
2018-01-16T06:05:05.074Z,100486.80
2018-01-16T06:07:32.718Z,100491.64
2018-01-16T06:10:00.323Z,100492.62
2018-01-16T06:12:27.866Z,100488.12
2018-01-16T06:14:55.421Z,100483.54
2018-01-16T06:17:22.962Z,100479.91
2018-01-16T06:19:50.606Z,100470.43
2018-01-16T06:22:18.146Z,100480.42
2018-01-16T06:24:45.750Z,100488.00
2018-01-16T06:27:13.401Z,100479.11
2018-01-16T06:29:40.946Z,100479.02
2018-01-16T06:32:08.529Z,100481.81
2018-01-16T06:34:36.070Z,100477.33
2018-01-16T06:37:03.671Z,100472.76
2018-01-16T06:39:31.273Z,100472.58
2018-01-16T06:41:58.813Z,100466.80
2018-01-16T06:44:26.431Z,100462.42
2018-01-16T06:46:54.035Z,100460.48
2018-01-16T06:49:21.578Z,100452.28
2018-01-16T06:51:49.129Z,100453.91
2018-01-16T06:54:16.746Z,100458.41
2018-01-16T06:56:44.335Z,100451.78
2018-01-16T06:59:11.877Z,100449.09
2018-01-16T07:01:39.477Z,100444.50
2018-01-16T07:04:07.189Z,100428.16
2018-01-16T07:06:34.730Z,100416.52
2018-01-16T07:09:02.375Z,100418.97
2018-01-16T07:11:29.983Z,100409.95
2018-01-16T07:13:57.583Z,100407.31
2018-01-16T07:16:25.134Z,100408.84
2018-01-16T07:18:52.675Z,100385.89
2018-01-16T07:21:20.261Z,100385.64
2018-01-16T07:23:47.802Z,100381.77
2018-01-16T07:26:15.342Z,100378.24
2018-01-16T07:28:42.890Z,100380.33
2018-01-16T07:31:10.429Z,100389.17
2018-01-16T07:33:38.070Z,100377.38
2018-01-16T07:36:05.706Z,100387.34
2018-01-16T07:38:33.307Z,100377.98
2018-01-16T07:41:00.923Z,100382.02
2018-01-16T07:43:28.470Z,100371.05
2018-01-16T07:45:56.085Z,100364.16
2018-01-16T07:48:23.625Z,100354.44
2018-01-16T07:53:18.785Z,100348.35
2018-01-16T07:55:46.382Z,100339.98
2018-01-16T07:58:14.050Z,100336.41
2018-01-16T08:00:41.654Z,100344.36
2018-01-16T08:03:09.202Z,100336.80
2018-01-16T08:05:36.814Z,100331.39
2018-01-16T08:08:04.411Z,100324.75
2018-01-16T08:10:32.054Z,100322.03
2018-01-16T08:12:59.656Z,100315.98
2018-01-16T08:15:27.241Z,100310.36
2018-01-16T08:17:54.820Z,100306.67
2018-01-16T08:20:22.357Z,100294.30
2018-01-16T08:22:49.998Z,100289.02
2018-01-16T08:25:17.541Z,100290.73
2018-01-16T08:27:45.075Z,100283.80
2018-01-16T08:30:12.650Z,100289.19
2018-01-16T08:32:40.206Z,100282.69
2018-01-16T08:35:07.797Z,100266.94
2018-01-16T08:37:35.338Z,100256.78
2018-01-16T08:40:02.878Z,100245.48
2018-01-16T08:42:30.426Z,100235.43
2018-01-16T08:44:57.969Z,100229.71
2018-01-16T08:47:25.556Z,100231.16
2018-01-16T08:49:53.095Z,100238.19
2018-01-16T08:52:21.723Z,100226.59
2018-01-16T08:54:49.337Z,100231.17
2018-01-16T08:57:16.879Z,100220.92
2018-01-16T08:59:44.493Z,100219.44
2018-01-16T09:02:12.062Z,100215.09
2018-01-16T09:04:39.657Z,100206.91
2018-01-16T09:07:07.202Z,100206.08
2018-01-16T09:09:34.794Z,100198.21
2018-01-16T09:12:02.378Z,100193.55
2018-01-16T09:14:29.919Z,100190.77
2018-01-16T09:16:57.453Z,100198.10
2018-01-16T09:19:24.994Z,100191.78
2018-01-16T09:21:52.534Z,100188.70
2018-01-16T09:24:20.222Z,100177.39
2018-01-16T09:26:47.770Z,100166.39
2018-01-16T09:29:15.303Z,100155.20
2018-01-16T09:31:42.876Z,100159.22
2018-01-16T09:34:10.474Z,100171.73
2018-01-16T09:36:38.053Z,100171.77
2018-01-16T09:39:05.625Z,100173.19
2018-01-16T09:41:33.162Z,100171.03
2018-01-16T09:44:00.701Z,100171.41
2018-01-16T09:46:28.239Z,100172.91
2018-01-16T09:48:55.874Z,100182.05
2018-01-16T09:51:23.469Z,100166.45
2018-01-16T09:53:51.102Z,100164.93
2018-01-16T09:56:18.649Z,100172.31
2018-01-16T09:58:46.190Z,100167.67
2018-01-16T10:01:13.770Z,100171.56
2018-01-16T10:03:41.362Z,100159.45
2018-01-16T10:06:08.906Z,100154.36
2018-01-16T10:08:36.515Z,100163.20
2018-01-16T10:11:04.099Z,100168.28
2018-01-16T10:13:31.768Z,100155.72
2018-01-16T10:15:59.370Z,100146.31
2018-01-16T10:18:26.910Z,100152.24
2018-01-16T10:20:54.454Z,100137.02
2018-01-16T10:23:21.986Z,100148.11
2018-01-16T10:25:49.569Z,100145.63
2018-01-16T10:28:17.114Z,100139.13
2018-01-16T10:30:44.710Z,100137.14
2018-01-16T10:33:12.256Z,100129.85
2018-01-16T10:35:39.905Z,100114.60
2018-01-16T10:38:07.546Z,100113.69
2018-01-16T10:40:35.138Z,100113.78
2018-01-16T10:43:02.734Z,100120.16
2018-01-16T10:45:30.287Z,100128.46
2018-01-16T10:47:58.019Z,100119.67
2018-01-16T10:50:25.602Z,100112.80
2018-01-16T10:52:53.134Z,100110.91
2018-01-16T10:55:20.677Z,100104.17
2018-01-16T10:57:48.240Z,100095.92
2018-01-16T11:00:15.834Z,100092.41
2018-01-16T11:02:43.476Z,100082.78
2018-01-16T11:05:11.074Z,100078.38
2018-01-16T11:07:38.610Z,100066.04
2018-01-16T11:10:06.151Z,100057.96
2018-01-16T11:12:33.690Z,100034.94
2018-01-16T11:15:01.294Z,100022.95
2018-01-16T11:17:28.886Z,100016.29
2018-01-16T11:19:56.425Z,100015.23
2018-01-16T11:22:24.031Z,100020.22
2018-01-16T11:24:51.569Z,100012.02
2018-01-16T11:27:19.157Z,100007.94
2018-01-16T11:29:46.690Z,99993.99
2018-01-16T11:32:14.287Z,99986.84
2018-01-16T11:34:41.949Z,99990.52
2018-01-16T11:37:09.486Z,99990.64
2018-01-16T11:39:37.122Z,99979.31
2018-01-16T11:42:04.655Z,99979.27
2018-01-16T11:44:32.185Z,99972.06
2018-01-16T11:46:59.734Z,99968.48
2018-01-16T11:49:27.326Z,99962.80
2018-01-16T11:51:54.906Z,99959.34
2018-01-16T11:54:22.434Z,99948.83
2018-01-16T11:56:50.022Z,99941.17
2018-01-16T11:59:17.566Z,99941.06
2018-01-16T12:01:45.102Z,99932.48
2018-01-16T12:04:12.774Z,99923.83
2018-01-16T12:06:40.334Z,99916.48
2018-01-16T12:09:07.866Z,99909.58
2018-01-16T12:11:35.472Z,99910.04
2018-01-16T12:14:03.106Z,99904.80
2018-01-16T12:16:30.719Z,99897.14
2018-01-16T12:18:58.327Z,99894.47
2018-01-16T12:21:25.857Z,99881.12
2018-01-16T12:23:53.399Z,99891.95
2018-01-16T12:26:20.934Z,99874.55
2018-01-16T12:28:48.514Z,99873.13
2018-01-16T12:31:16.118Z,99870.98
2018-01-16T12:33:43.706Z,99863.58
2018-01-16T12:36:11.348Z,99873.73
2018-01-16T12:38:38.938Z,99873.78
2018-01-16T12:41:06.537Z,99869.03
2018-01-16T12:43:34.074Z,99872.27
2018-01-16T12:46:01.671Z,99861.48
2018-01-16T12:48:29.222Z,99857.33
2018-01-16T12:50:56.809Z,99845.72
2018-01-16T12:53:24.414Z,99832.66
2018-01-16T12:55:51.950Z,99830.41
2018-01-16T12:58:19.547Z,99825.87
2018-01-16T13:00:47.121Z,99816.02
2018-01-16T13:03:14.659Z,99809.78
2018-01-16T13:05:42.263Z,99809.99
2018-01-16T13:08:09.850Z,99815.78
2018-01-16T13:10:37.382Z,99811.44
2018-01-16T13:13:04.922Z,99801.38
2018-01-16T13:15:32.494Z,99797.16
2018-01-16T13:18:00.076Z,99791.97
2018-01-16T13:20:27.666Z,99780.02
2018-01-16T13:22:55.258Z,99776.42
2018-01-16T13:25:22.798Z,99780.24
2018-01-16T13:27:50.337Z,99769.27
2018-01-16T13:30:17.916Z,99770.30
2018-01-16T13:32:45.450Z,99764.03
2018-01-16T13:35:12.986Z,99764.91
2018-01-16T13:37:40.586Z,99754.30
2018-01-16T13:40:08.122Z,99753.77
2018-01-16T13:42:35.806Z,99745.98
2018-01-16T13:45:03.347Z,99740.76
2018-01-16T13:47:30.952Z,99737.78
2018-01-16T13:49:58.489Z,99724.67
2018-01-16T13:52:26.026Z,99719.00
2018-01-16T13:54:53.667Z,99726.05
2018-01-16T13:57:21.259Z,99717.78
2018-01-16T13:59:48.850Z,99716.66
2018-01-16T14:02:16.390Z,99710.28
2018-01-16T14:04:43.918Z,99706.10
2018-01-16T14:07:11.554Z,99709.83
2018-01-16T14:09:39.095Z,99711.22
2018-01-16T14:12:06.695Z,99707.80
2018-01-16T14:14:34.238Z,99713.86
2018-01-16T14:17:01.770Z,99717.47
2018-01-16T14:19:29.359Z,99711.34
2018-01-16T14:21:56.894Z,99714.62
2018-01-16T14:24:24.425Z,99704.77
2018-01-16T14:26:52.031Z,99697.91
2018-01-16T14:29:19.566Z,99687.00
2018-01-16T14:31:47.202Z,99678.84
2018-01-16T14:34:14.738Z,99673.73
2018-01-16T14:36:42.330Z,99670.02
2018-01-16T14:39:09.882Z,99672.80
2018-01-16T14:41:37.483Z,99666.73
2018-01-16T14:44:05.130Z,99663.20
2018-01-16T14:46:32.665Z,99663.51
2018-01-16T14:49:00.213Z,99658.17
2018-01-16T14:51:27.827Z,99664.35
2018-01-16T14:53:55.360Z,99665.41
2018-01-16T14:56:22.998Z,99665.09
2018-01-16T15:01:17.371Z,99654.75
2018-01-16T15:03:44.918Z,99653.48
2018-01-16T15:06:12.516Z,99644.19
2018-01-16T15:08:40.102Z,99646.12
2018-01-16T15:11:07.648Z,99642.78
2018-01-16T15:13:35.234Z,99647.27
2018-01-16T15:16:02.830Z,99651.53
2018-01-16T15:18:30.426Z,99644.94
2018-01-16T15:20:58.035Z,99645.78
2018-01-16T15:23:25.630Z,99642.84
2018-01-16T15:25:53.234Z,99636.50
2018-01-16T15:28:20.773Z,99638.09
2018-01-16T15:30:48.384Z,99635.63
2018-01-16T15:33:15.920Z,99633.07
2018-01-16T15:35:43.491Z,99618.94
2018-01-16T15:38:11.034Z,99613.19
2018-01-16T15:40:38.602Z,99613.86
2018-01-16T15:43:06.162Z,99603.89
2018-01-16T15:45:33.694Z,99593.80
2018-01-16T15:48:01.286Z,99589.42
2018-01-16T15:50:28.841Z,99584.55
2018-01-16T15:52:56.374Z,99584.25
2018-01-16T15:55:23.918Z,99583.92
2018-01-16T15:57:51.514Z,99575.75
2018-01-16T16:00:19.150Z,99573.36
2018-01-16T16:02:46.750Z,99586.12
2018-01-16T16:05:14.294Z,99576.09
2018-01-16T16:07:41.838Z,99582.53
2018-01-16T16:10:09.370Z,99577.03
2018-01-16T16:12:37.015Z,99576.66
2018-01-16T16:15:04.549Z,99573.16
2018-01-16T16:17:32.142Z,99574.95
2018-01-16T16:19:59.742Z,99583.66
2018-01-16T16:22:27.282Z,99567.89
2018-01-16T16:24:54.870Z,99561.33
2018-01-16T16:27:22.413Z,99548.45
2018-01-16T16:29:50.052Z,99544.72
2018-01-16T16:32:17.591Z,99535.06
2018-01-16T16:34:45.129Z,99539.23
2018-01-16T16:37:12.808Z,99527.23
2018-01-16T16:39:40.337Z,99524.38
2018-01-16T16:42:07.906Z,99529.33
2018-01-16T16:44:35.521Z,99524.16
2018-01-16T16:47:03.106Z,99516.78
2018-01-16T16:49:30.654Z,99514.35
2018-01-16T16:51:58.194Z,99517.55
2018-01-16T16:54:25.749Z,99517.86
2018-01-16T16:56:53.294Z,99524.30
2018-01-16T16:59:20.881Z,99526.84
2018-01-16T17:01:48.483Z,99520.47
2018-01-16T17:04:16.066Z,99519.80
2018-01-16T17:06:43.621Z,99507.92
2018-01-16T17:09:11.162Z,99495.80
2018-01-16T17:11:38.710Z,99496.84
2018-01-16T17:14:06.312Z,99498.11
2018-01-16T17:16:33.968Z,99494.22
2018-01-16T17:19:01.574Z,99497.88
2018-01-16T17:21:29.179Z,99495.06
2018-01-16T17:23:56.730Z,99504.11
2018-01-16T17:26:24.274Z,99498.96
2018-01-16T17:28:51.833Z,99499.56
2018-01-16T17:31:19.371Z,99494.89
2018-01-16T17:33:46.980Z,99487.55
2018-01-16T17:36:14.579Z,99490.25
2018-01-16T17:38:42.122Z,99493.11
2018-01-16T17:41:09.718Z,99485.41
2018-01-16T17:43:37.262Z,99488.05
2018-01-16T17:46:04.826Z,99478.71
2018-01-16T17:48:32.434Z,99471.53
2018-01-16T17:51:00.055Z,99459.55
2018-01-16T17:53:27.593Z,99454.39
2018-01-16T17:55:55.137Z,99456.34
2018-01-16T17:58:22.746Z,99451.58
2018-01-16T18:00:50.366Z,99443.84
2018-01-16T18:03:17.926Z,99449.48
2018-01-16T18:05:45.471Z,99443.78
2018-01-16T18:08:13.089Z,99447.24
2018-01-16T18:10:40.691Z,99440.56
2018-01-16T18:13:08.230Z,99452.42
2018-01-16T18:15:35.779Z,99430.97
2018-01-16T18:18:03.472Z,99435.98
2018-01-16T18:20:31.022Z,99451.86
2018-01-16T18:22:58.629Z,99428.75
2018-01-16T18:25:26.285Z,99432.60
2018-01-16T18:27:53.850Z,99417.20
2018-01-16T18:30:21.460Z,99421.10
2018-01-16T18:32:49.011Z,99419.42
2018-01-16T18:35:16.558Z,99410.67
2018-01-16T18:37:44.170Z,99412.88
2018-01-16T18:40:11.768Z,99399.69
2018-01-16T18:42:39.372Z,99397.11
2018-01-16T18:45:06.926Z,99394.69
2018-01-16T18:47:34.466Z,99377.74
2018-01-16T18:50:02.086Z,99382.56
2018-01-16T18:52:29.630Z,99372.85
2018-01-16T18:54:57.165Z,99372.17
2018-01-16T18:57:24.721Z,99371.92
2018-01-16T18:59:52.379Z,99376.92
2018-01-16T19:02:19.929Z,99370.09
2018-01-16T19:04:47.470Z,99374.98
2018-01-16T19:07:15.144Z,99365.61
2018-01-16T19:09:42.684Z,99366.69
2018-01-16T19:12:10.241Z,99357.31
2018-01-16T19:14:37.850Z,99353.73
2018-01-16T19:17:05.490Z,99368.98
2018-01-16T19:19:33.035Z,99366.53
2018-01-16T19:22:00.638Z,99352.05
2018-01-16T19:24:28.222Z,99352.80
2018-01-16T19:26:55.819Z,99354.92
2018-01-16T19:29:23.358Z,99342.33
2018-01-16T19:31:50.972Z,99355.66
2018-01-16T19:34:18.578Z,99353.61
2018-01-16T19:36:46.121Z,99337.34
2018-01-16T19:39:13.715Z,99335.50
2018-01-16T19:41:41.390Z,99340.29
2018-01-16T19:44:08.930Z,99333.50
2018-01-16T19:46:37.394Z,99337.39
2018-01-16T19:49:04.987Z,99331.59
2018-01-16T19:51:32.596Z,99336.13
2018-01-16T19:54:00.181Z,99314.52
2018-01-16T19:56:27.730Z,99313.67
2018-01-16T19:58:55.370Z,99304.92
2018-01-16T20:01:22.975Z,99303.82
2018-01-16T20:03:50.579Z,99303.20
2018-01-16T20:06:18.131Z,99290.65
2018-01-16T20:08:45.669Z,99294.97
2018-01-16T20:11:13.215Z,99297.50
2018-01-16T20:13:40.791Z,99289.50
2018-01-16T20:16:08.329Z,99282.55
2018-01-16T20:18:35.897Z,99289.80
2018-01-16T20:21:03.495Z,99284.81
2018-01-16T20:23:31.123Z,99286.97
2018-01-16T20:25:58.969Z,99275.38
2018-01-16T20:28:26.550Z,99276.64
2018-01-16T20:30:54.107Z,99286.64
2018-01-16T20:33:21.706Z,99302.07
2018-01-16T20:35:49.318Z,99321.63
2018-01-16T20:38:16.919Z,99313.35
2018-01-16T20:40:44.520Z,99318.08
2018-01-16T20:43:12.064Z,99317.54
2018-01-16T20:45:39.659Z,99338.32
2018-01-16T20:48:07.207Z,99338.05
2018-01-16T20:50:34.750Z,99315.47
2018-01-16T20:53:02.298Z,99341.66
2018-01-16T20:55:29.904Z,99342.61
2018-01-16T20:57:57.540Z,99327.02
2018-01-16T21:00:25.085Z,99313.71
2018-01-16T21:02:52.634Z,99315.56
2018-01-16T21:05:20.174Z,99319.36
2018-01-16T21:07:47.710Z,99334.58
2018-01-16T21:10:15.323Z,99336.00
2018-01-16T21:12:42.866Z,99351.17
2018-01-16T21:15:10.511Z,99348.64
2018-01-16T21:17:38.082Z,99352.64
2018-01-16T21:20:05.622Z,99347.19
2018-01-16T21:22:33.167Z,99341.44
2018-01-16T21:25:00.702Z,99342.67
2018-01-16T21:27:28.306Z,99341.08
2018-01-16T21:29:55.850Z,99343.30
2018-01-16T21:32:23.482Z,99335.05
2018-01-16T21:34:51.090Z,99329.59
2018-01-16T21:37:18.631Z,99334.53
2018-01-16T21:39:46.174Z,99324.11
2018-01-16T21:42:13.706Z,99311.14
2018-01-16T21:44:41.247Z,99290.73
2018-01-16T21:47:08.847Z,99301.16
2018-01-16T21:49:36.432Z,99285.34
2018-01-16T21:52:03.986Z,99283.99
2018-01-16T21:54:31.530Z,99285.25
2018-01-16T21:56:59.139Z,99301.36
2018-01-16T21:59:26.686Z,99318.30
2018-01-16T22:01:54.330Z,99299.64
2018-01-16T22:04:21.874Z,99319.09
2018-01-16T22:06:49.462Z,99304.83
2018-01-16T22:09:17.002Z,99297.01
2018-01-16T22:11:44.594Z,99309.34
2018-01-16T22:14:12.211Z,99321.11
2018-01-16T22:16:39.761Z,99321.06
2018-01-16T22:19:07.391Z,99325.16
2018-01-16T22:21:34.930Z,99327.70
2018-01-16T22:24:02.574Z,99334.70
2018-01-16T22:26:30.247Z,99348.03
2018-01-16T22:28:57.792Z,99347.20
2018-01-16T22:31:25.342Z,99350.82
2018-01-16T22:33:52.919Z,99341.23
2018-01-16T22:36:20.472Z,99322.41
2018-01-16T22:38:48.073Z,99324.99
2018-01-16T22:41:15.691Z,99303.85
2018-01-16T22:43:43.234Z,99307.49
2018-01-16T22:46:10.774Z,99304.20
2018-01-16T22:48:38.325Z,99290.48
2018-01-16T22:51:05.935Z,99292.92
2018-01-16T22:53:33.482Z,99287.33
2018-01-16T22:56:01.082Z,99285.48
2018-01-16T22:58:28.734Z,99285.69
2018-01-16T23:00:56.330Z,99286.11
2018-01-16T23:03:23.867Z,99284.52
2018-01-16T23:05:51.414Z,99261.06
2018-01-16T23:08:18.950Z,99257.44
2018-01-16T23:10:46.494Z,99256.27
2018-01-16T23:13:14.086Z,99252.70
2018-01-16T23:15:41.686Z,99252.59
2018-01-16T23:18:09.218Z,99267.73
2018-01-16T23:20:36.754Z,99275.77
2018-01-16T23:23:04.298Z,99264.39
2018-01-16T23:25:31.890Z,99265.28
2018-01-16T23:27:59.577Z,99260.97
2018-01-16T23:30:27.174Z,99261.53
2018-01-16T23:32:54.778Z,99253.63
2018-01-16T23:35:22.377Z,99263.16
2018-01-16T23:37:49.960Z,99248.66
2018-01-16T23:40:17.490Z,99246.45
2018-01-16T23:42:45.026Z,99242.41
2018-01-16T23:45:12.626Z,99248.64
2018-01-16T23:47:40.166Z,99254.86
2018-01-16T23:50:07.830Z,99237.81
2018-01-16T23:52:35.369Z,99228.81
2018-01-16T23:55:02.903Z,99219.28
2018-01-16T23:57:30.506Z,99214.80
2018-01-16T23:59:58.103Z,99218.05
